Kezdőlap
METAR-TAF:

METAR-TAF

Repülőterek :

Piacenza, Olaszország

földrajzi szélesség: 44-55N, földrajzi hosszúság: 009-44E, magasság: 134 m

Jelenlegi meteorológiai megfigyelések

A jelentés 1 órával és 9 perccel ezelõtt készült, 12:55 UTC
Északi szél 2 kt
Hőmérséklet 13°C
Páratartalom 72%
Légköri nyomás 1023 hPa
Látótávolság 10 km, vagy több
Kevés felhő 2000 lábon

METAR: LIMS 181255Z 36002KT 9999 FEW020 13/08 Q1023 RMK FEW VIS MIN 9999 WIND THR30 01003KT BLU

Idő: 15:04 (14:04 UTC)


TAF: hiányzik

Meteorológiai megfigyelések és előrejelzések több, mint 4000 repülőtéren (METAR és TAF jelentéseket).

A térképen piros és sárga pontok jelzik az elérhető meteorológiai állomásokat.

Mozgassa az egeret a pont fölött, hogy megjelenjen az állomás neve.

Azután kattintson az időjárási megfigyelések és előrejelzések megtekintéséhez.

A térkép megváltoztatása: kattintson a fekete keresztel jelölt zöld gombra ráközelítéshez, a vonallal jelölt zöld gombra távolításhoz, vagy a zöld nyilakra a szomszédos térképek eléréséhez.


METAR-TAF: